createdAt,value
2018-03-27T00:01:20.023Z,94666.86
2018-03-27T00:03:48.033Z,94654.20
2018-03-27T00:06:16.074Z,94653.55
2018-03-27T00:08:44.190Z,94656.02
2018-03-27T00:11:12.224Z,94666.66
2018-03-27T00:13:40.241Z,94664.99
2018-03-27T00:16:08.298Z,94660.44
2018-03-27T00:18:36.364Z,94660.38
2018-03-27T00:21:04.448Z,94660.70
2018-03-27T00:23:32.475Z,94657.95
2018-03-27T00:26:00.523Z,94653.13
2018-03-27T00:28:40.494Z,94649.00
2018-03-27T00:31:20.122Z,94647.55
2018-03-27T00:33:59.831Z,94646.50
2018-03-27T00:36:39.791Z,94645.69
2018-03-27T00:39:19.601Z,94649.98
2018-03-27T00:45:05.621Z,94654.77
2018-03-27T00:47:33.587Z,94654.16
2018-03-27T00:50:01.661Z,94653.59
2018-03-27T00:52:29.744Z,94653.17
2018-03-27T00:54:57.878Z,94653.00
2018-03-27T00:57:26.104Z,94646.19
2018-03-27T00:59:54.155Z,94650.78
2018-03-27T01:02:22.257Z,94646.70
2018-03-27T01:04:50.328Z,94651.33
2018-03-27T01:07:18.395Z,94654.78
2018-03-27T01:09:46.423Z,94655.05
2018-03-27T01:12:14.536Z,94657.19
2018-03-27T01:14:42.639Z,94656.67
2018-03-27T01:17:10.680Z,94657.73
2018-03-27T01:19:38.890Z,94663.48
2018-03-27T01:22:07.023Z,94667.62
2018-03-27T01:24:35.175Z,94661.09
2018-03-27T01:27:03.248Z,94661.20
2018-03-27T01:29:31.292Z,94657.05
2018-03-27T01:31:59.319Z,94649.80
2018-03-27T01:34:27.376Z,94652.64
2018-03-27T01:36:55.415Z,94655.58
2018-03-27T01:39:23.412Z,94649.86
2018-03-27T01:41:51.427Z,94656.02
2018-03-27T01:44:19.468Z,94651.46
2018-03-27T01:46:47.565Z,94652.41
2018-03-27T01:49:15.660Z,94654.83
2018-03-27T01:51:43.701Z,94657.20
2018-03-27T01:54:11.772Z,94657.79
2018-03-27T01:56:39.790Z,94655.95
2018-03-27T01:59:08.268Z,94656.23
2018-03-27T02:01:36.269Z,94668.60
2018-03-27T02:04:04.274Z,94674.45
2018-03-27T02:06:32.303Z,94581.47
2018-03-27T02:09:00.324Z,94666.54
2018-03-27T02:11:34.070Z,94665.87
2018-03-27T02:14:07.544Z,94661.89
2018-03-27T02:16:41.253Z,94662.23
2018-03-27T02:19:14.851Z,94671.58
2018-03-27T02:21:42.730Z,94666.41
2018-03-27T02:24:11.374Z,94670.38
2018-03-27T02:26:39.423Z,94668.71
2018-03-27T02:29:07.486Z,94667.64
2018-03-27T02:31:35.552Z,94672.98
2018-03-27T02:34:03.572Z,94667.36
2018-03-27T02:36:31.622Z,94676.30
2018-03-27T02:38:59.691Z,94674.77
2018-03-27T02:41:27.793Z,94678.72
2018-03-27T02:43:55.846Z,94684.27
2018-03-27T02:46:24.000Z,94683.72
2018-03-27T02:48:52.142Z,94690.67
2018-03-27T02:51:20.279Z,94690.30
2018-03-27T02:53:48.375Z,94689.09
2018-03-27T02:56:16.421Z,94695.89
2018-03-27T02:58:44.605Z,94697.95
2018-03-27T03:01:12.930Z,94698.19
2018-03-27T03:03:41.033Z,94699.71
2018-03-27T03:06:09.072Z,94704.15
2018-03-27T03:08:37.047Z,94710.62
2018-03-27T03:11:05.157Z,94710.31
2018-03-27T03:13:33.290Z,94714.28
2018-03-27T03:16:01.391Z,94708.45
2018-03-27T03:18:29.458Z,94708.20
2018-03-27T03:20:57.438Z,94709.73
2018-03-27T03:23:25.459Z,94713.20
2018-03-27T03:25:53.522Z,94715.63
2018-03-27T03:28:21.611Z,94722.77
2018-03-27T03:30:49.657Z,94718.61
2018-03-27T03:33:17.714Z,94722.27
2018-03-27T03:35:45.784Z,94725.87
2018-03-27T03:38:13.831Z,94720.61
2018-03-27T03:40:41.901Z,94729.59
2018-03-27T03:43:09.922Z,94724.16
2018-03-27T03:45:38.003Z,94726.43
2018-03-27T03:48:06.022Z,94729.80
2018-03-27T03:50:34.112Z,94728.24
2018-03-27T03:53:02.109Z,94736.52
2018-03-27T03:55:30.147Z,94732.20
2018-03-27T03:57:58.289Z,94737.70
2018-03-27T04:00:26.448Z,94741.83
2018-03-27T04:02:54.886Z,94740.76
2018-03-27T04:05:22.942Z,94745.63
2018-03-27T04:07:50.955Z,94758.64
2018-03-27T04:10:19.013Z,94756.86
2018-03-27T04:12:47.071Z,94759.99
2018-03-27T04:15:15.095Z,94757.64
2018-03-27T04:17:43.146Z,94753.02
2018-03-27T04:20:11.214Z,94754.48
2018-03-27T04:22:39.290Z,94757.78
2018-03-27T04:25:07.312Z,94765.35
2018-03-27T04:27:35.326Z,94763.05
2018-03-27T04:30:03.366Z,94758.68
2018-03-27T04:32:31.436Z,94757.08
2018-03-27T04:34:59.612Z,94765.39
2018-03-27T04:37:27.696Z,94771.33
2018-03-27T04:39:55.719Z,94766.69
2018-03-27T04:42:23.767Z,94766.94
2018-03-27T04:44:51.751Z,94711.11
2018-03-27T04:47:19.823Z,94764.27
2018-03-27T04:49:47.839Z,94765.75
2018-03-27T04:52:15.934Z,94772.05
2018-03-27T04:54:43.991Z,94773.19
2018-03-27T04:57:12.051Z,94775.31
2018-03-27T04:59:40.112Z,94774.84
2018-03-27T05:02:08.195Z,94775.16
2018-03-27T05:04:36.343Z,94771.27
2018-03-27T05:07:04.370Z,94773.11
2018-03-27T05:09:32.362Z,94772.91
2018-03-27T05:12:00.445Z,94773.44
2018-03-27T05:14:28.475Z,94778.50
2018-03-27T05:16:56.497Z,94778.64
2018-03-27T05:19:24.580Z,94782.08
2018-03-27T05:21:52.605Z,94781.47
2018-03-27T05:24:20.743Z,94776.23
2018-03-27T05:26:48.755Z,94772.27
2018-03-27T05:29:16.847Z,94772.61
2018-03-27T05:31:45.122Z,94730.74
2018-03-27T05:34:13.232Z,94774.00
2018-03-27T05:36:41.367Z,94779.53
2018-03-27T05:39:09.703Z,94776.22
2018-03-27T05:41:37.812Z,94771.80
2018-03-27T05:44:05.896Z,94767.91
2018-03-27T05:46:33.967Z,94777.81
2018-03-27T05:49:02.025Z,94783.14
2018-03-27T05:51:30.027Z,94779.70
2018-03-27T05:53:58.102Z,94778.34
2018-03-27T05:56:26.250Z,94777.10
2018-03-27T05:58:54.333Z,94784.17
2018-03-27T06:01:22.352Z,94751.39
2018-03-27T06:03:50.508Z,94785.52
2018-03-27T06:06:18.939Z,94786.69
2018-03-27T06:08:46.941Z,94785.33
2018-03-27T06:11:15.072Z,94791.75
2018-03-27T06:13:43.050Z,94793.48
2018-03-27T06:16:11.212Z,94803.77
2018-03-27T06:18:39.335Z,94800.61
2018-03-27T06:21:07.423Z,94809.00
2018-03-27T06:23:35.454Z,94803.89
2018-03-27T06:26:03.563Z,94796.72
2018-03-27T06:28:31.724Z,94795.91
2018-03-27T06:30:59.876Z,94796.93
2018-03-27T06:33:27.968Z,94799.94
2018-03-27T06:35:56.058Z,94797.81
2018-03-27T06:38:24.035Z,94802.25
2018-03-27T06:40:52.107Z,94798.77
2018-03-27T06:43:20.139Z,94804.01
2018-03-27T06:45:48.168Z,94805.24
2018-03-27T06:48:16.251Z,94804.37
2018-03-27T06:50:44.291Z,94807.98
2018-03-27T06:53:12.333Z,94807.70
2018-03-27T06:55:40.450Z,94806.09
2018-03-27T06:58:08.562Z,94811.69
2018-03-27T07:00:36.766Z,94801.89
2018-03-27T07:03:04.862Z,94800.03
2018-03-27T07:05:32.969Z,94805.81
2018-03-27T07:08:01.445Z,94801.54
2018-03-27T07:10:29.558Z,94800.45
2018-03-27T07:12:57.629Z,94807.42
2018-03-27T07:15:25.679Z,94798.77
2018-03-27T07:17:53.718Z,94811.24
2018-03-27T07:20:21.798Z,94813.76
2018-03-27T07:22:49.888Z,94812.15
2018-03-27T07:25:17.867Z,94807.59
2018-03-27T07:27:45.944Z,94799.94
2018-03-27T07:30:13.996Z,94795.27
2018-03-27T07:32:42.067Z,94795.72
2018-03-27T07:35:10.129Z,94795.56
2018-03-27T07:37:38.166Z,94791.42
2018-03-27T07:40:06.229Z,94794.73
2018-03-27T07:42:34.312Z,94797.90
2018-03-27T07:45:02.402Z,94795.87
2018-03-27T07:47:30.572Z,94798.97
2018-03-27T07:49:58.635Z,94793.29
2018-03-27T07:52:26.687Z,94794.55
2018-03-27T07:54:54.855Z,94800.19
2018-03-27T07:57:23.611Z,94801.97
2018-03-27T07:59:52.054Z,94802.83
2018-03-27T08:02:20.620Z,94808.21
2018-03-27T08:04:49.189Z,94801.59
2018-03-27T08:07:17.428Z,94791.38
2018-03-27T08:09:46.016Z,94795.11
2018-03-27T08:12:14.138Z,94807.45
2018-03-27T08:14:42.295Z,94789.31
2018-03-27T08:17:10.367Z,94801.31
2018-03-27T08:19:38.386Z,94802.39
2018-03-27T08:22:06.476Z,94802.50
2018-03-27T08:24:34.617Z,94790.16
2018-03-27T08:27:02.697Z,94796.64
2018-03-27T08:29:30.748Z,94798.07
2018-03-27T08:31:58.768Z,94794.98
2018-03-27T08:34:26.925Z,94794.03
2018-03-27T08:36:55.006Z,94792.53
2018-03-27T08:39:23.515Z,94782.92
2018-03-27T08:41:51.895Z,94779.23
2018-03-27T08:44:19.960Z,94770.77
2018-03-27T08:46:48.086Z,94776.99
2018-03-27T08:49:16.155Z,94776.86
2018-03-27T08:51:44.228Z,94770.44
2018-03-27T08:54:12.267Z,94769.67
2018-03-27T08:56:40.430Z,94770.65
2018-03-27T08:59:08.544Z,94762.50
2018-03-27T09:01:36.604Z,94767.82
2018-03-27T09:04:04.750Z,94769.03
2018-03-27T09:06:32.870Z,94766.02
2018-03-27T09:09:01.041Z,94761.64
2018-03-27T09:11:29.348Z,94769.67
2018-03-27T09:13:57.452Z,94764.56
2018-03-27T09:16:25.501Z,94755.20
2018-03-27T09:18:53.558Z,94747.89
2018-03-27T09:21:21.614Z,94755.38
2018-03-27T09:23:49.688Z,94746.27
2018-03-27T09:26:17.772Z,94745.34
2018-03-27T09:28:45.835Z,94749.77
2018-03-27T09:31:14.010Z,94747.63
2018-03-27T09:33:42.116Z,94737.58
2018-03-27T09:36:10.227Z,94732.00
2018-03-27T09:38:38.305Z,94728.84
2018-03-27T09:41:06.370Z,94735.45
2018-03-27T09:43:34.418Z,94739.28
2018-03-27T09:46:02.515Z,94726.53
2018-03-27T09:48:30.595Z,94720.73
2018-03-27T09:50:58.669Z,94728.58
2018-03-27T09:53:26.846Z,94726.58
2018-03-27T09:55:54.910Z,94718.60
2018-03-27T09:58:23.026Z,94711.55
2018-03-27T10:00:51.231Z,94699.07
2018-03-27T10:03:19.250Z,94714.19
2018-03-27T10:05:47.353Z,94712.98
2018-03-27T10:08:15.596Z,94716.78
2018-03-27T10:10:43.723Z,94712.20
2018-03-27T10:13:12.065Z,94698.84
2018-03-27T10:15:40.171Z,94695.14
2018-03-27T10:18:08.280Z,94695.78
2018-03-27T10:20:36.384Z,94703.41
2018-03-27T10:23:04.460Z,94697.38
2018-03-27T10:25:32.466Z,94696.27
2018-03-27T10:28:00.471Z,94701.58
2018-03-27T10:30:28.550Z,94698.88
2018-03-27T10:32:56.576Z,94697.86
2018-03-27T10:35:24.669Z,94693.22
2018-03-27T10:37:52.764Z,94694.81
2018-03-27T10:40:21.698Z,94690.08
2018-03-27T10:42:49.924Z,94683.20
2018-03-27T10:45:17.942Z,94679.38
2018-03-27T10:47:45.978Z,94668.30
2018-03-27T10:50:14.137Z,94668.39
2018-03-27T10:52:42.213Z,94660.20
2018-03-27T10:55:10.358Z,94657.73
2018-03-27T10:57:38.470Z,94637.42
2018-03-27T11:00:06.572Z,94658.65
2018-03-27T11:02:34.679Z,94666.58
2018-03-27T11:05:02.706Z,94669.50
2018-03-27T11:07:30.798Z,94666.55
2018-03-27T11:09:58.912Z,94669.34
2018-03-27T11:12:27.036Z,94678.45
2018-03-27T11:14:55.563Z,94678.91
2018-03-27T11:17:23.689Z,94665.23
2018-03-27T11:19:51.728Z,94671.67
2018-03-27T11:22:19.794Z,94670.38
2018-03-27T11:24:47.868Z,94680.27
2018-03-27T11:27:15.848Z,94681.42
2018-03-27T11:29:43.887Z,94677.81
2018-03-27T11:32:11.969Z,94672.66
2018-03-27T11:34:40.045Z,94670.69
2018-03-27T11:37:08.080Z,94684.65
2018-03-27T11:39:36.260Z,94689.46
2018-03-27T11:42:04.344Z,94686.38
2018-03-27T11:44:32.478Z,94689.93
2018-03-27T11:47:00.545Z,94691.16
2018-03-27T11:49:28.626Z,94691.05
2018-03-27T11:51:56.690Z,94703.66
2018-03-27T11:54:24.711Z,94702.69
2018-03-27T11:56:52.814Z,94705.81
2018-03-27T11:59:20.842Z,94699.05
2018-03-27T12:01:48.991Z,94692.97
2018-03-27T12:04:17.078Z,94696.37
2018-03-27T12:06:45.103Z,94694.04
2018-03-27T12:09:13.248Z,94698.09
2018-03-27T12:11:41.298Z,94698.92
2018-03-27T12:14:09.381Z,94686.16
2018-03-27T12:16:37.673Z,94698.97
2018-03-27T12:19:05.723Z,94701.52
2018-03-27T12:21:33.763Z,94697.21
2018-03-27T12:24:01.797Z,94700.92
2018-03-27T12:26:29.914Z,94690.56
2018-03-27T12:28:57.987Z,94704.88
2018-03-27T12:31:26.067Z,94704.41
2018-03-27T12:33:54.236Z,94699.51
2018-03-27T12:36:23.048Z,94700.15
2018-03-27T12:38:52.029Z,94694.59
2018-03-27T12:41:20.254Z,94678.67
2018-03-27T12:43:48.366Z,94680.75
2018-03-27T12:46:17.094Z,94680.39
2018-03-27T12:48:45.253Z,94685.17
2018-03-27T12:51:13.288Z,94673.02
2018-03-27T12:53:43.196Z,94694.19
2018-03-27T12:56:11.276Z,94705.45
2018-03-27T12:58:39.286Z,94700.12
2018-03-27T13:01:07.360Z,94717.42
2018-03-27T13:03:35.366Z,94714.30
2018-03-27T13:06:03.555Z,94715.55
2018-03-27T13:08:31.518Z,94722.38
2018-03-27T13:10:59.543Z,94731.53
2018-03-27T13:13:27.650Z,94730.23
2018-03-27T13:15:55.760Z,94724.11
2018-03-27T13:18:23.947Z,94721.84
2018-03-27T13:20:52.054Z,94736.82
2018-03-27T13:23:20.102Z,94736.18
2018-03-27T13:25:48.157Z,94737.38
2018-03-27T13:28:16.291Z,94686.93
2018-03-27T13:30:44.381Z,94735.55
2018-03-27T13:33:12.442Z,94729.38
2018-03-27T13:35:40.443Z,94723.66
2018-03-27T13:38:08.548Z,94726.91
2018-03-27T13:40:36.614Z,94723.17
2018-03-27T13:43:04.691Z,94725.12
2018-03-27T13:45:32.558Z,94719.45
2018-03-27T13:48:00.605Z,94716.00
2018-03-27T13:50:28.738Z,94707.81
2018-03-27T13:52:56.743Z,94704.23
2018-03-27T13:55:24.722Z,94705.19
2018-03-27T13:57:52.706Z,94710.24
2018-03-27T14:00:20.721Z,94708.89
2018-03-27T14:02:48.726Z,94707.14
2018-03-27T14:05:16.730Z,94711.09
2018-03-27T14:07:44.743Z,94706.50
2018-03-27T14:10:12.743Z,94702.52
2018-03-27T14:12:40.653Z,94697.19
2018-03-27T14:15:08.715Z,94695.91
2018-03-27T14:17:36.815Z,94692.34
2018-03-27T14:20:05.041Z,94689.79
2018-03-27T14:22:33.049Z,94696.13
2018-03-27T14:25:01.038Z,94702.86
2018-03-27T14:27:29.036Z,94709.55
2018-03-27T14:29:57.085Z,94699.16
2018-03-27T14:32:25.115Z,94692.33
2018-03-27T14:34:53.084Z,94684.58
2018-03-27T14:37:21.840Z,94683.41
2018-03-27T14:39:50.862Z,94694.80
2018-03-27T14:42:18.852Z,94690.47
2018-03-27T14:44:46.863Z,94690.36
2018-03-27T14:47:17.425Z,94690.08
2018-03-27T14:49:45.440Z,94679.91
2018-03-27T14:52:13.506Z,94678.78
2018-03-27T14:54:41.558Z,94681.79
2018-03-27T14:59:55.164Z,94683.44
2018-03-27T15:02:23.251Z,94685.27
2018-03-27T15:04:52.016Z,94695.09
2018-03-27T15:07:20.019Z,94691.77
2018-03-27T15:09:48.082Z,94691.94
2018-03-27T15:12:16.095Z,94690.70
2018-03-27T15:14:44.172Z,94692.23
2018-03-27T15:17:12.154Z,94692.70
2018-03-27T15:19:40.281Z,94682.17
2018-03-27T15:22:08.649Z,94693.09
2018-03-27T15:24:36.648Z,94686.36
2018-03-27T15:27:04.677Z,94688.68
2018-03-27T15:29:32.723Z,94684.73
2018-03-27T15:32:00.757Z,94685.80
2018-03-27T15:34:28.870Z,94688.78
2018-03-27T15:36:56.945Z,94698.24
2018-03-27T15:39:24.937Z,94702.83
2018-03-27T15:41:52.947Z,94704.70
2018-03-27T15:44:21.029Z,94705.53
2018-03-27T15:46:49.067Z,94713.99
2018-03-27T15:49:17.157Z,94711.14
2018-03-27T15:51:45.171Z,94707.53
2018-03-27T15:54:13.184Z,94702.80
2018-03-27T15:56:41.223Z,94701.38
2018-03-27T15:59:09.245Z,94703.86
2018-03-27T16:01:37.344Z,94703.72
2018-03-27T16:04:05.548Z,94699.13
2018-03-27T16:06:33.576Z,94700.51
2018-03-27T16:09:02.002Z,94694.45
2018-03-27T16:11:30.073Z,94695.13
2018-03-27T16:13:58.265Z,94698.20
2018-03-27T16:16:26.918Z,94702.48
2018-03-27T16:18:55.710Z,94704.39
2018-03-27T16:21:24.195Z,94704.24
2018-03-27T16:23:52.667Z,94700.97
2018-03-27T16:26:21.138Z,94700.39
2018-03-27T16:28:49.489Z,94701.58
2018-03-27T16:31:18.106Z,94707.19
2018-03-27T16:33:46.496Z,94667.07
2018-03-27T16:36:15.002Z,94709.88
2018-03-27T16:38:43.548Z,94713.88
2018-03-27T16:41:11.508Z,94712.86
2018-03-27T16:43:40.609Z,94712.84
2018-03-27T16:46:08.883Z,94721.41
2018-03-27T16:48:37.397Z,94716.41
2018-03-27T16:51:06.149Z,94712.03
2018-03-27T16:53:34.805Z,94712.42
2018-03-27T16:56:03.489Z,94719.70
2018-03-27T16:58:31.904Z,94717.31
2018-03-27T17:01:00.438Z,94726.25
2018-03-27T17:03:29.066Z,94728.38
2018-03-27T17:05:57.478Z,94735.75
2018-03-27T17:08:25.926Z,94734.01
2018-03-27T17:10:54.230Z,94734.80
2018-03-27T17:13:22.690Z,94738.00
2018-03-27T17:15:51.259Z,94750.73
2018-03-27T17:18:19.656Z,94750.47
2018-03-27T17:20:48.540Z,94755.53
2018-03-27T17:23:17.422Z,94763.65
2018-03-27T17:25:45.871Z,94769.94
2018-03-27T17:28:14.294Z,94779.98
2018-03-27T17:30:42.765Z,94775.03
2018-03-27T17:33:11.178Z,94786.14
2018-03-27T17:35:39.718Z,94779.89
2018-03-27T17:38:08.578Z,94786.27
2018-03-27T17:40:37.195Z,94793.59
2018-03-27T17:43:05.746Z,94798.72
2018-03-27T17:45:34.096Z,94809.98
2018-03-27T17:48:02.938Z,94808.25
2018-03-27T17:50:31.428Z,94813.66
2018-03-27T17:53:00.074Z,94821.52
2018-03-27T17:55:28.690Z,94832.02
2018-03-27T17:57:57.028Z,94832.12
2018-03-27T18:00:25.541Z,94836.06
2018-03-27T18:02:53.817Z,94833.19
2018-03-27T18:05:22.104Z,94847.98
2018-03-27T18:07:50.579Z,94863.96
2018-03-27T18:10:19.108Z,94863.88
2018-03-27T18:12:47.875Z,94868.52
2018-03-27T18:15:16.745Z,94874.28
2018-03-27T18:17:45.332Z,94882.13
2018-03-27T18:20:14.132Z,94884.86
2018-03-27T18:22:42.413Z,94894.29
2018-03-27T18:25:10.834Z,94909.59
2018-03-27T18:27:39.751Z,94917.26
2018-03-27T18:30:08.038Z,94915.83
2018-03-27T18:32:36.332Z,94923.19
2018-03-27T18:35:05.195Z,94920.06
2018-03-27T18:37:33.679Z,94916.84
2018-03-27T18:40:02.162Z,94918.81
2018-03-27T18:42:30.641Z,94926.01
2018-03-27T18:44:59.017Z,94910.52
2018-03-27T18:47:27.404Z,94920.70
2018-03-27T18:49:55.910Z,94923.53
2018-03-27T18:52:24.455Z,94925.19
2018-03-27T18:54:53.016Z,94921.11
2018-03-27T18:57:21.536Z,94926.21
2018-03-27T18:59:50.203Z,94923.13
2018-03-27T19:02:18.781Z,94929.93
2018-03-27T19:04:47.234Z,94933.31
2018-03-27T19:07:15.719Z,94937.50
2018-03-27T19:09:44.336Z,94925.93
2018-03-27T19:12:13.088Z,94923.56
2018-03-27T19:14:41.517Z,94927.06
2018-03-27T19:17:10.186Z,94938.89
2018-03-27T19:19:38.602Z,94942.84
2018-03-27T19:22:07.054Z,94949.68
2018-03-27T19:24:35.555Z,94946.66
2018-03-27T19:27:03.914Z,94947.34
2018-03-27T19:29:32.703Z,94952.83
2018-03-27T19:32:01.442Z,94952.39
2018-03-27T19:34:29.763Z,94949.71
2018-03-27T19:36:58.534Z,94956.20
2018-03-27T19:39:26.735Z,94947.55
2018-03-27T19:41:55.296Z,94945.08
2018-03-27T19:44:23.818Z,94952.45
2018-03-27T19:46:52.509Z,94949.11
2018-03-27T19:49:20.967Z,94946.45
2018-03-27T19:51:49.489Z,94949.91
2018-03-27T19:54:18.328Z,94945.77
2018-03-27T19:56:46.771Z,94938.76
2018-03-27T19:59:15.270Z,94931.75
2018-03-27T20:01:44.158Z,94921.77
2018-03-27T20:04:12.568Z,94919.31
2018-03-27T20:06:41.330Z,94916.55
2018-03-27T20:09:09.718Z,94913.00
2018-03-27T20:11:38.181Z,94900.20
2018-03-27T20:14:06.838Z,94896.61
2018-03-27T20:16:35.267Z,94899.73
2018-03-27T20:19:03.837Z,94898.91
2018-03-27T20:21:32.520Z,94893.06
2018-03-27T20:24:00.911Z,94898.08
2018-03-27T20:26:29.494Z,94904.34
2018-03-27T20:28:58.010Z,94906.44
2018-03-27T20:31:26.739Z,94905.70
2018-03-27T20:33:55.246Z,94900.59
2018-03-27T20:36:23.712Z,94907.12
2018-03-27T20:38:51.999Z,94900.52
2018-03-27T20:41:20.665Z,94897.55
2018-03-27T20:43:49.044Z,94905.95
2018-03-27T20:46:17.739Z,94910.58
2018-03-27T20:48:46.410Z,94910.93
2018-03-27T20:51:14.660Z,94905.73
2018-03-27T20:53:43.488Z,94906.05
2018-03-27T20:56:12.065Z,94895.83
2018-03-27T20:58:40.538Z,94895.44
2018-03-27T21:01:09.036Z,94902.77
2018-03-27T21:03:37.857Z,94901.13
2018-03-27T21:06:06.186Z,94904.64
2018-03-27T21:08:34.671Z,94906.94
2018-03-27T21:11:02.954Z,94911.73
2018-03-27T21:13:31.622Z,94914.40
2018-03-27T21:15:59.823Z,94907.00
2018-03-27T21:18:28.381Z,94908.30
2018-03-27T21:20:56.759Z,94907.07
2018-03-27T21:23:25.261Z,94902.91
2018-03-27T21:25:53.622Z,94895.25
2018-03-27T21:28:21.897Z,94898.94
2018-03-27T21:30:50.280Z,94907.83
2018-03-27T21:33:18.983Z,94906.17
2018-03-27T21:35:47.250Z,94898.73
2018-03-27T21:38:15.733Z,94904.99
2018-03-27T21:40:44.106Z,94907.78
2018-03-27T21:43:12.565Z,94913.79
2018-03-27T21:45:41.050Z,94915.40
2018-03-27T21:48:09.345Z,94914.67
2018-03-27T21:50:38.145Z,94912.91
2018-03-27T21:53:06.902Z,94907.91
2018-03-27T21:55:35.702Z,94906.77
2018-03-27T21:58:04.105Z,94899.05
2018-03-27T22:00:32.557Z,94899.57
2018-03-27T22:03:01.340Z,94888.13
2018-03-27T22:05:30.035Z,94897.56
2018-03-27T22:07:58.636Z,94902.13
2018-03-27T22:10:27.086Z,94905.19
2018-03-27T22:12:55.261Z,94894.17
2018-03-27T22:15:23.646Z,94894.26
2018-03-27T22:17:52.223Z,94892.95
2018-03-27T22:20:20.708Z,94888.95
2018-03-27T22:22:49.298Z,94894.76
2018-03-27T22:25:17.866Z,94881.98
2018-03-27T22:27:46.296Z,94882.02
2018-03-27T22:30:14.862Z,94883.28
2018-03-27T22:32:43.540Z,94884.21
2018-03-27T22:35:12.307Z,94886.80
2018-03-27T22:37:40.601Z,94885.72
2018-03-27T22:40:09.370Z,94884.00
2018-03-27T22:42:37.641Z,94878.59
2018-03-27T22:45:06.121Z,94882.70
2018-03-27T22:47:34.719Z,94892.66
2018-03-27T22:50:03.355Z,94888.86
2018-03-27T22:52:31.795Z,94891.70
2018-03-27T22:55:00.352Z,94898.60
2018-03-27T22:57:28.935Z,94899.25
2018-03-27T22:59:57.376Z,94902.41
2018-03-27T23:02:25.894Z,94897.33
2018-03-27T23:04:54.476Z,94900.43
2018-03-27T23:07:22.823Z,94887.70
2018-03-27T23:09:51.233Z,94888.95
2018-03-27T23:12:20.328Z,94882.52
2018-03-27T23:14:48.982Z,94877.31
2018-03-27T23:17:17.407Z,94878.67
2018-03-27T23:19:46.080Z,94882.30
2018-03-27T23:22:26.606Z,94882.21
2018-03-27T23:24:55.145Z,94876.88
2018-03-27T23:27:24.005Z,94871.70
2018-03-27T23:29:52.612Z,94876.11
2018-03-27T23:32:22.107Z,94875.12
2018-03-27T23:34:50.384Z,94874.66
2018-03-27T23:37:19.319Z,94871.47
2018-03-27T23:39:47.750Z,94868.95
2018-03-27T23:42:16.322Z,94869.01
2018-03-27T23:44:44.610Z,94866.70
2018-03-27T23:47:13.110Z,94862.84
2018-03-27T23:49:41.663Z,94862.94
2018-03-27T23:52:09.893Z,94863.34
2018-03-27T23:54:38.417Z,94859.23
2018-03-27T23:57:06.744Z,94863.42
2018-03-27T23:59:35.087Z,94859.77
